Time;durP1;ratioP1;P1;durP2;ratioP2;P2;SDS_P1;SDS_P2;PMS_P1;PMS_P2;Temp;Humidity;BMP_temperature;BMP_pressure;BME280_temperature;BME280_humidity;BME280_pressure;Samples;Min_cycle;Max_cycle;Signal;HPM_P1;HPM_P2
2022/09/20 03:55:31;;;;;;;3.62;1.95;;;;;;;8.90;100.00;100385.63;6608698;27;20415;-92
2022/09/20 03:58:49;;;;;;;2.20;1.90;;;;;;;8.85;100.00;100383.41;6607563;27;33817;-89
2022/09/20 04:02:11;;;;;;;1.95;1.83;;;;;;;8.83;100.00;100377.41;6608043;27;34945;-90
2022/09/20 04:05:22;;;;;;;1.98;1.87;;;;;;;8.85;100.00;100387.97;6608994;27;33609;-90
2022/09/20 04:08:41;;;;;;;2.80;1.95;;;;;;;8.84;100.00;100391.66;6609183;27;34021;-90
2022/09/20 04:12:00;;;;;;;5.30;2.12;;;;;;;8.88;100.00;100395.69;6609671;27;33938;-89
2022/09/20 04:15:24;;;;;;;2.12;1.90;;;;;;;8.82;100.00;100391.81;6609038;27;34660;-89
2022/09/20 04:18:36;;;;;;;2.55;2.00;;;;;;;8.81;100.00;100400.88;6610004;27;33539;-90
2022/09/20 04:21:58;;;;;;;2.10;1.90;;;;;;;8.87;100.00;100406.59;6609703;27;34467;-89
2022/09/20 04:25:20;;;;;;;2.45;2.22;;;;;;;8.83;100.00;100403.37;6610331;27;33699;-92
2022/09/20 04:28:29;;;;;;;2.42;2.10;;;;;;;8.80;100.00;100409.94;6611017;27;34636;-90
2022/09/20 04:31:42;;;;;;;3.60;2.20;;;;;;;8.79;100.00;100405.56;6609828;27;34477;-89
2022/09/20 04:38:34;;;;;;;3.55;2.30;;;;;;;8.90;100.00;100414.31;6609632;27;35358;-90
2022/09/20 04:42:14;;;;;;;3.83;2.05;;;;;;;8.80;100.00;100415.31;6609340;27;34223;-90
2022/09/20 04:45:58;;;;;;;2.47;2.25;;;;;;;8.81;100.00;100430.41;6615006;27;34118;-89
2022/09/20 04:49:16;;;;;;;2.45;2.25;;;;;;;8.87;100.00;100430.75;6609947;26;35327;-93
2022/09/20 04:52:33;;;;;;;3.65;2.50;;;;;;;8.88;100.00;100435.94;6608989;27;33694;-90
2022/09/20 04:55:43;;;;;;;2.47;2.28;;;;;;;8.77;100.00;100433.56;6630851;26;33948;-90
2022/09/20 04:59:06;;;;;;;2.50;2.30;;;;;;;8.80;100.00;100427.88;6636282;26;34597;-90
2022/09/20 05:02:28;;;;;;;3.47;2.70;;;;;;;8.88;100.00;100425.22;6636920;26;33508;-90
2022/09/20 05:06:05;;;;;;;2.78;2.58;;;;;;;8.94;100.00;100421.84;6636188;26;35297;-90
2022/09/20 05:09:27;;;;;;;4.57;2.60;;;;;;;8.98;100.00;100427.72;6636596;26;33647;-89
2022/09/20 05:12:45;;;;;;;2.67;2.47;;;;;;;9.00;100.00;100431.94;6651768;26;35370;-89
2022/09/20 05:16:02;;;;;;;4.50;2.70;;;;;;;9.07;100.00;100421.38;6642122;26;35418;-89
2022/09/20 05:19:23;;;;;;;3.50;2.50;;;;;;;9.11;100.00;100428.09;6614008;26;33777;-90
2022/09/20 05:22:57;;;;;;;2.60;2.40;;;;;;;9.15;100.00;100418.69;6614201;26;33031;-90
2022/09/20 05:26:02;;;;;;;3.60;2.25;;;;;;;9.31;100.00;100423.22;6637716;26;35050;-89
2022/09/20 05:29:33;;;;;;;2.35;2.15;;;;;;;9.39;100.00;100427.75;6635862;26;34046;-90
2022/09/20 05:32:46;;;;;;;2.65;2.45;;;;;;;9.48;100.00;100421.38;6616012;26;32704;-89
2022/09/20 05:36:07;;;;;;;2.47;2.00;;;;;;;9.60;100.00;100430.75;6615685;26;32476;-89
2022/09/20 05:39:23;;;;;;;2.37;2.20;;;;;;;9.70;100.00;100438.62;6639093;26;35675;-89
2022/09/20 05:42:34;;;;;;;3.60;2.35;;;;;;;9.75;100.00;100430.91;6655685;26;35391;-89
2022/09/20 05:46:20;;;;;;;2.90;2.40;;;;;;;9.85;100.00;100436.09;6637793;26;32219;-89
2022/09/20 05:49:42;;;;;;;2.03;1.92;;;;;;;9.98;100.00;100458.75;6613270;26;33314;-89
2022/09/20 05:52:54;;;;;;;3.20;2.40;;;;;;;10.09;100.00;100454.88;6637161;26;33845;-89
2022/09/20 05:56:11;;;;;;;2.28;1.95;;;;;;;10.24;100.00;100460.37;6635487;26;34584;-89
2022/09/20 05:59:40;;;;;;;2.40;2.20;;;;;;;10.23;100.00;100450.59;6635417;26;33958;-89
2022/09/20 06:03:06;;;;;;;3.50;2.00;;;;;;;10.31;100.00;100460.53;6633940;26;34759;-89
2022/09/20 06:06:31;;;;;;;2.53;2.30;;;;;;;10.36;100.00;100459.00;6633935;26;33366;-87
2022/09/20 06:10:12;;;;;;;2.62;2.40;;;;;;;10.57;99.62;100455.69;6636955;26;34837;-87
2022/09/20 06:13:21;;;;;;;2.92;2.10;;;;;;;10.59;97.34;100450.97;6635192;26;35311;-88
2022/09/20 06:16:42;;;;;;;2.20;2.10;;;;;;;10.57;98.21;100458.38;6634059;26;34659;-87
2022/09/20 06:19:48;;;;;;;3.05;2.25;;;;;;;10.78;97.62;100459.62;6634768;26;33901;-88
2022/09/20 06:22:55;;;;;;;2.20;2.00;;;;;;;10.85;97.06;100460.59;6633479;26;34261;-87
2022/09/20 06:26:07;;;;;;;2.67;2.47;;;;;;;10.95;96.21;100455.81;6634911;26;33922;-88
2022/09/20 06:29:13;;;;;;;2.42;2.10;;;;;;;10.96;95.92;100453.97;6633829;26;33890;-87
2022/09/20 06:32:16;;;;;;;2.42;2.20;;;;;;;11.08;95.58;100450.66;6633897;26;34100;-87
2022/09/20 06:35:22;;;;;;;2.50;2.30;;;;;;;11.20;95.44;100455.62;6633598;26;33521;-88
2022/09/20 06:42:29;;;;;;;4.40;2.33;;;;;;;11.43;93.07;100456.47;6633449;26;35413;-87
2022/09/20 06:45:34;;;;;;;3.22;2.20;;;;;;;11.38;93.48;100461.56;6657154;26;35576;-88
2022/09/20 06:56:50;;;;;;;4.60;2.50;;;;;;;11.84;91.51;100471.44;6660696;26;20061;-87
2022/09/20 06:59:55;;;;;;;2.37;2.08;;;;;;;11.92;89.63;100466.81;6667689;26;33943;-89
2022/09/20 07:02:57;;;;;;;6.43;2.30;;;;;;;12.03;89.47;100477.16;6660124;26;34140;-88
2022/09/20 07:06:01;;;;;;;1.95;1.75;;;;;;;12.11;88.36;100473.56;6663115;26;33636;-87
2022/09/20 07:09:04;;;;;;;5.10;2.10;;;;;;;12.15;87.95;100476.72;6663099;26;34486;-87
2022/09/20 07:12:09;;;;;;;4.72;2.20;;;;;;;12.33;87.71;100479.88;6657912;26;34055;-87
2022/09/20 07:15:13;;;;;;;2.25;2.05;;;;;;;12.34;85.67;100486.09;6658559;26;34258;-88
2022/09/20 07:18:16;;;;;;;2.72;2.00;;;;;;;12.41;85.04;100487.87;6663749;26;34246;-86
2022/09/20 07:21:20;;;;;;;3.78;2.20;;;;;;;12.41;84.57;100492.44;6664386;26;33764;-86
2022/09/20 07:24:23;;;;;;;3.67;2.62;;;;;;;12.46;84.92;100492.69;6669625;26;34053;-87
2022/09/20 07:27:25;;;;;;;3.47;2.15;;;;;;;12.66;83.86;100501.91;6673935;26;35422;-89
2022/09/20 07:30:31;;;;;;;2.40;2.20;;;;;;;12.70;84.11;100505.91;6675482;26;34231;-91
2022/09/20 07:33:33;;;;;;;2.67;2.17;;;;;;;12.90;82.86;100505.34;6646648;26;33975;-88
2022/09/20 07:36:36;;;;;;;4.37;2.47;;;;;;;12.98;81.61;100502.50;6663261;26;34599;-88
2022/09/20 07:39:39;;;;;;;3.53;2.17;;;;;;;13.01;80.99;100514.78;6661487;26;33493;-87
2022/09/20 07:42:44;;;;;;;2.85;2.25;;;;;;;13.08;81.33;100507.63;6641712;26;32534;-87
2022/09/20 07:45:53;;;;;;;2.97;2.55;;;;;;;13.26;80.97;100505.34;6640573;26;32619;-87
2022/09/20 07:48:56;;;;;;;3.00;2.37;;;;;;;13.37;79.05;100517.53;6661351;26;34229;-87
2022/09/20 07:51:59;;;;;;;3.25;2.60;;;;;;;13.49;77.74;100512.44;6661938;26;35002;-87
2022/09/20 07:55:02;;;;;;;2.60;2.37;;;;;;;13.50;76.92;100514.09;6637935;26;204993;-88
2022/09/20 07:58:05;;;;;;;2.60;2.40;;;;;;;13.58;77.48;100503.16;6683033;26;34545;-87
2022/09/20 08:01:12;;;;;;;2.97;2.70;;;;;;;13.46;77.08;100510.94;6668879;26;35400;-88
2022/09/20 08:04:15;;;;;;;2.00;1.90;;;;;;;13.77;76.20;100516.00;6662607;26;34304;-86
2022/09/20 08:07:17;;;;;;;3.08;2.30;;;;;;;13.88;73.62;100505.69;6662954;26;33775;-87
2022/09/20 08:10:21;;;;;;;3.45;2.50;;;;;;;13.81;73.70;100508.34;6663797;26;34409;-87
2022/09/20 08:13:28;;;;;;;3.12;2.37;;;;;;;13.77;73.78;100510.59;6641335;26;33569;-87
2022/09/20 08:16:51;;;;;;;5.25;2.03;;;;;;;13.92;73.82;100515.06;6661550;26;33855;-88
2022/09/20 08:19:54;;;;;;;4.53;2.40;;;;;;;14.17;72.88;100516.31;6665735;26;34998;-89
2022/09/20 08:22:58;;;;;;;2.25;2.05;;;;;;;14.24;72.66;100516.34;6644689;26;33627;-89
2022/09/20 08:26:25;;;;;;;2.92;2.50;;;;;;;14.28;72.93;100526.59;6662139;26;34492;-86
2022/09/20 08:29:28;;;;;;;1.98;1.83;;;;;;;14.16;73.11;100528.19;6663151;26;33756;-87
2022/09/20 08:32:31;;;;;;;3.12;2.40;;;;;;;14.52;71.95;100533.44;6662836;26;33758;-87
2022/09/20 08:35:34;;;;;;;4.15;2.00;;;;;;;14.61;69.56;100525.97;6659240;26;34686;-89
2022/09/20 08:38:41;;;;;;;2.35;2.05;;;;;;;14.62;69.53;100538.47;6664665;26;34796;-89
2022/09/20 08:42:33;;;;;;;2.33;2.05;;;;;;;14.67;68.60;100529.75;6667003;26;35488;-89
2022/09/20 08:49:53;;;;;;;3.55;1.90;;;;;;;14.86;69.06;100517.31;6663538;26;20063;-89
2022/09/20 08:53:04;;;;;;;1.95;1.67;;;;;;;14.87;68.12;100529.84;6662250;26;35006;-89
2022/09/20 08:56:08;;;;;;;2.40;1.98;;;;;;;14.79;67.75;100530.03;6664199;26;33782;-89
2022/09/20 08:59:16;;;;;;;1.80;1.70;;;;;;;14.84;66.84;100541.94;6662939;26;34953;-89
2022/09/20 09:02:20;;;;;;;2.33;1.75;;;;;;;14.54;68.49;100537.81;6665659;26;35171;-89
2022/09/20 09:05:45;;;;;;;3.15;1.85;;;;;;;14.96;67.66;100529.47;6663512;26;34090;-90
2022/09/20 09:08:50;;;;;;;1.70;1.60;;;;;;;15.09;67.01;100525.97;6661279;26;35083;-90
2022/09/20 09:11:55;;;;;;;2.58;1.80;;;;;;;14.89;65.65;100527.78;6661971;26;34771;-89
2022/09/20 09:15:25;;;;;;;2.75;1.67;;;;;;;14.85;66.73;100521.09;6642170;26;33883;-90
2022/09/20 09:18:34;;;;;;;1.67;1.58;;;;;;;15.04;65.86;100517.63;6652056;26;33879;-90
2022/09/20 09:21:41;;;;;;;;;;;;;;;15.42;63.71;100517.91;6663250;26;33703;-90
2022/09/20 09:24:45;;;;;;;1.60;1.50;;;;;;;15.80;62.74;100506.50;6642267;26;34362;-90
2022/09/20 09:27:54;;;;;;;2.00;1.80;;;;;;;16.36;61.91;100504.34;6662599;26;34035;-90
2022/09/20 09:31:28;;;;;;;1.80;1.70;;;;;;;16.04;61.61;100499.59;6662658;26;34091;-90
2022/09/20 09:34:34;;;;;;;3.65;1.60;;;;;;;16.17;62.78;100501.44;6662863;26;35031;-89
2022/09/20 09:37:37;;;;;;;3.05;1.90;;;;;;;15.71;63.89;100506.91;6658384;26;33587;-89
2022/09/20 09:40:52;;;;;;;2.50;1.92;;;;;;;15.75;62.68;100510.88;6661015;26;34022;-89
2022/09/20 09:44:08;;;;;;;1.45;1.40;;;;;;;16.02;61.16;100507.09;6643206;26;32246;-88
2022/09/20 09:47:28;;;;;;;1.30;1.30;;;;;;;16.03;61.63;100502.53;6636282;26;32762;-89
2022/09/20 09:50:33;;;;;;;2.87;1.65;;;;;;;15.79;62.21;100503.97;6663776;26;34280;-89
2022/09/20 09:53:37;;;;;;;1.73;1.50;;;;;;;16.16;61.64;100497.06;6656710;26;34750;-89
2022/09/20 09:57:03;;;;;;;1.95;1.60;;;;;;;16.37;60.57;100495.97;6646776;26;32827;-88
2022/09/20 10:00:13;;;;;;;2.12;1.42;;;;;;;16.21;60.69;100497.25;6667045;26;33935;-89
2022/09/20 10:04:04;;;;;;;1.83;1.30;;;;;;;16.76;58.15;100496.94;6638710;26;33941;-89
2022/09/20 10:07:19;;;;;;;1.65;1.55;;;;;;;17.19;59.28;100496.28;6664752;26;35413;-89
2022/09/20 10:10:32;;;;;;;1.33;1.23;;;;;;;17.83;55.61;100497.94;6665027;26;34039;-89
2022/09/20 10:13:46;;;;;;;1.65;1.55;;;;;;;18.07;54.43;100495.41;6666292;26;34377;-89
2022/09/20 10:16:50;;;;;;;1.30;1.20;;;;;;;18.02;55.10;100487.09;6679079;26;35420;-89
2022/09/20 10:19:59;;;;;;;1.25;1.15;;;;;;;17.89;53.84;100488.88;6640370;26;33967;-89
2022/09/20 10:23:39;;;;;;;1.33;1.23;;;;;;;17.56;54.73;100489.13;6637687;26;33391;-88
2022/09/20 10:27:47;;;;;;;1.60;1.50;;;;;;;17.46;53.72;100486.03;6552673;27;32646;-89
2022/09/20 10:31:17;;;;;;;1.70;1.43;;;;;;;16.94;56.21;100480.72;6564646;26;34730;-88
2022/09/20 10:34:34;;;;;;;1.48;1.33;;;;;;;16.40;57.59;100492.00;6613224;26;32700;-88
2022/09/20 10:38:15;;;;;;;1.50;1.40;;;;;;;16.98;57.78;100487.41;6641919;26;32651;-89
2022/09/20 10:49:26;;;;;;;1.23;1.12;;;;;;;18.19;52.85;100487.34;6624125;26;20052;-89
2022/09/20 10:53:00;;;;;;;2.67;1.30;;;;;;;18.07;52.89;100479.91;6591728;27;34173;-88
2022/09/20 10:56:26;;;;;;;1.33;1.23;;;;;;;17.67;55.47;100477.53;6614757;26;32630;-88
2022/09/20 11:03:12;;;;;;;2.97;1.40;;;;;;;18.30;53.75;100471.06;6576458;26;33834;-88
2022/09/20 11:06:31;;;;;;;1.27;1.20;;;;;;;18.97;50.73;100464.84;6657386;26;33822;-89
2022/09/20 11:09:56;;;;;;;3.15;1.20;;;;;;;19.37;48.45;100470.56;6625562;26;33841;-88
2022/09/20 11:13:04;;;;;;;1.35;1.25;;;;;;;20.60;45.71;100462.53;6639867;26;34419;-89
2022/09/20 11:16:16;;;;;;;2.00;1.35;;;;;;;20.94;45.74;100468.09;6665134;26;34265;-89
2022/09/20 11:19:27;;;;;;;1.33;1.30;;;;;;;21.85;45.93;100465.34;6665769;26;34350;-89
2022/09/20 11:22:54;;;;;;;3.15;1.50;;;;;;;20.91;45.79;100466.69;6660631;26;34812;-89
2022/09/20 11:26:10;;;;;;;1.27;1.20;;;;;;;18.84;49.70;100471.31;6662788;26;34290;-89
2022/09/20 11:29:25;;;;;;;3.75;1.30;;;;;;;18.32;52.04;100468.97;6621344;26;33514;-88
2022/09/20 11:32:45;;;;;;;1.50;1.40;;;;;;;17.46;55.09;100467.00;6636986;26;35480;-91
2022/09/20 11:39:53;;;;;;;3.65;1.50;;;;;;;16.55;57.36;100474.41;6663992;26;20066;-87
2022/09/20 11:43:00;;;;;;;1.48;1.35;;;;;;;16.12;59.17;100467.81;6662331;26;33861;-87
2022/09/20 11:46:07;;;;;;;1.48;1.37;;;;;;;17.03;57.65;100459.56;6660984;26;34379;-90
2022/09/20 11:49:16;;;;;;;1.30;1.20;;;;;;;19.81;50.41;100452.00;6642538;26;32784;-88
2022/09/20 11:52:47;;;;;;;1.17;1.08;;;;;;;22.81;41.57;100445.81;6660006;26;34285;-88
2022/09/20 11:56:01;;;;;;;0.90;0.80;;;;;;;24.48;36.98;100441.97;6664554;26;34203;-88
2022/09/20 11:59:27;;;;;;;1.48;1.20;;;;;;;25.14;34.89;100435.06;6665282;26;34621;-89
2022/09/20 12:02:48;;;;;;;0.60;0.60;;;;;;;26.16;33.18;100429.50;6619473;26;34120;31
2022/09/20 12:09:55;;;;;;;2.80;0.70;;;;;;;28.13;29.15;100416.56;6660226;26;34640;-89
2022/09/20 12:13:14;;;;;;;1.55;0.70;;;;;;;29.10;29.29;100417.28;6647290;26;32953;-89
2022/09/20 12:16:37;;;;;;;0.85;0.65;;;;;;;29.50;27.27;100410.25;6667802;26;33819;-88
2022/09/20 12:19:40;;;;;;;0.62;0.60;;;;;;;29.63;26.89;100416.19;6665031;26;34170;-88
2022/09/20 12:22:46;;;;;;;0.50;0.50;;;;;;;29.39;27.98;100415.16;6658466;26;34083;-89
2022/09/20 12:29:49;;;;;;;0.50;0.50;;;;;;;28.88;27.01;100415.09;6635329;26;34830;-89
2022/09/20 12:32:55;;;;;;;0.40;0.35;;;;;;;25.65;30.82;100410.25;6636972;26;33980;-88
2022/09/20 12:36:11;;;;;;;0.62;0.62;;;;;;;25.60;31.44;100410.28;6636517;26;33668;-89
2022/09/20 12:39:17;;;;;;;0.90;0.70;;;;;;;24.61;33.71;100411.22;6632267;26;33582;-88
2022/09/20 12:42:30;;;;;;;0.68;0.68;;;;;;;24.12;35.95;100407.94;6666890;26;33894;-88
2022/09/20 12:45:34;;;;;;;2.05;0.82;;;;;;;24.44;35.09;100416.94;6671281;26;34589;-88
2022/09/20 12:48:37;;;;;;;0.98;0.80;;;;;;;22.89;37.48;100419.84;6664465;26;34230;-88
2022/09/20 12:55:01;;;;;;;0.65;0.60;;;;;;;22.96;39.11;100423.22;6664859;26;34473;-89
2022/09/20 12:58:14;;;;;;;0.70;0.70;;;;;;;22.44;38.33;100431.94;6644060;26;33841;-88
2022/09/20 13:01:17;;;;;;;0.60;0.60;;;;;;;21.62;39.83;100425.28;6644853;26;32902;-88
2022/09/20 13:04:56;;;;;;;1.37;0.62;;;;;;;20.91;41.33;100411.94;6666170;26;35339;-88
2022/09/20 13:08:09;;;;;;;1.62;0.85;;;;;;;20.50;42.76;100413.87;6548184;26;33133;-89
2022/09/20 13:11:51;;;;;;;1.67;1.02;;;;;;;19.80;44.85;100417.56;6666282;26;35056;-92
2022/09/20 13:14:54;;;;;;;1.27;1.15;;;;;;;19.43;47.68;100416.91;6669021;26;34000;-89
2022/09/20 13:18:00;;;;;;;1.15;1.08;;;;;;;19.01;48.79;100417.78;6664800;26;34124;-88
2022/09/20 13:21:06;;;;;;;1.25;1.15;;;;;;;18.74;48.82;100417.28;6664991;26;34210;-88
2022/09/20 13:24:15;;;;;;;1.23;1.08;;;;;;;18.20;51.42;100416.28;6664358;26;33952;-89
2022/09/20 13:27:30;;;;;;;2.63;1.23;;;;;;;17.60;52.59;100425.00;6677318;26;33923;-88
2022/09/20 13:30:34;;;;;;;2.70;1.33;;;;;;;17.61;53.97;100423.13;6681345;26;34217;-89
2022/09/20 13:33:36;;;;;;;1.25;1.17;;;;;;;18.00;54.58;100421.94;6675409;26;35343;-89
2022/09/20 13:36:40;;;;;;;1.40;1.10;;;;;;;18.41;52.05;100422.31;6680149;26;33975;-88
2022/09/20 13:39:43;;;;;;;1.33;1.17;;;;;;;18.22;51.30;100429.66;6673489;26;34302;-88
2022/09/20 13:42:48;;;;;;;1.40;1.25;;;;;;;18.69;49.91;100422.59;6643900;26;33457;-88
2022/09/20 13:45:55;;;;;;;1.33;1.23;;;;;;;19.99;48.12;100421.00;6663389;26;33931;-89
2022/09/20 13:49:22;;;;;;;4.25;1.15;;;;;;;21.02;44.97;100422.03;6668054;26;34631;-88
2022/09/20 13:52:28;;;;;;;1.15;0.98;;;;;;;21.20;44.07;100420.13;6664242;26;34078;-89
2022/09/20 13:55:34;;;;;;;0.93;0.90;;;;;;;21.26;43.89;100410.94;6663844;26;34175;-89
2022/09/20 13:58:37;;;;;;;0.77;0.77;;;;;;;22.27;41.70;100410.06;6666552;26;33818;-89
2022/09/20 14:01:47;;;;;;;1.58;1.02;;;;;;;23.45;39.52;100418.47;6667998;26;34240;-89
2022/09/20 14:04:53;;;;;;;1.20;0.95;;;;;;;26.62;33.65;100413.63;6665530;26;33854;-90
2022/09/20 14:08:00;;;;;;;1.42;1.00;;;;;;;27.11;32.17;100414.69;6665817;26;35053;-93
2022/09/20 14:11:19;;;;;;;0.62;0.62;;;;;;;27.44;31.44;100415.88;6666996;26;34535;-91
2022/09/20 14:14:24;;;;;;;0.70;0.70;;;;;;;26.41;32.45;100415.63;6670801;26;33470;-90
2022/09/20 14:17:35;;;;;;;0.95;0.73;;;;;;;24.07;35.83;100421.66;6674106;26;35241;-90
2022/09/20 14:20:42;;;;;;;3.08;0.95;;;;;;;21.35;40.84;100419.56;6673498;26;35267;-90
2022/09/20 14:24:02;;;;;;;0.45;0.45;;;;;;;20.13;43.38;100432.50;6667599;26;34328;-90
2022/09/20 14:27:25;;;;;;;2.08;0.70;;;;;;;19.26;42.20;100433.13;6667794;26;34223;-89
2022/09/20 14:30:35;;;;;;;0.50;0.50;;;;;;;17.86;44.88;100440.28;6666341;26;34692;-89
2022/09/20 14:33:42;;;;;;;0.62;0.50;;;;;;;16.92;48.12;100444.75;6666411;26;35098;-89
2022/09/20 14:36:48;;;;;;;1.73;0.60;;;;;;;16.25;48.81;100446.06;6646672;26;32314;-89
2022/09/20 14:39:56;;;;;;;1.83;0.70;;;;;;;15.76;51.80;100450.09;6666095;26;34424;-89
2022/09/20 14:43:04;;;;;;;1.23;0.67;;;;;;;15.67;52.20;100449.44;6645429;26;32595;-89
2022/09/20 14:46:15;;;;;;;2.87;0.68;;;;;;;15.55;53.25;100453.84;6645557;26;32534;-89
2022/09/20 14:49:24;;;;;;;0.68;0.68;;;;;;;15.65;53.64;100448.84;6669385;26;33739;-89
2022/09/20 14:52:33;;;;;;;0.60;0.60;;;;;;;15.42;53.55;100458.22;6653580;26;32940;-90
2022/09/20 14:55:38;;;;;;;1.33;0.88;;;;;;;15.35;53.60;100459.25;6679374;26;34164;-89
2022/09/20 14:59:01;;;;;;;1.40;1.10;;;;;;;15.08;55.05;100456.50;6681819;26;35321;-92
2022/09/20 15:02:08;;;;;;;1.08;0.98;;;;;;;15.10;54.72;100457.13;6660518;26;33200;-91
2022/09/20 15:05:24;;;;;;;1.75;0.90;;;;;;;14.97;56.77;100459.81;6680860;26;34928;-89
2022/09/20 15:08:27;;;;;;;0.57;0.57;;;;;;;14.82;56.91;100454.56;6679783;26;35265;-89
2022/09/20 15:11:30;;;;;;;1.10;1.00;;;;;;;14.80;57.89;100461.22;6676431;26;33949;-89
2022/09/20 15:14:33;;;;;;;1.00;0.93;;;;;;;14.79;59.57;100465.81;6679252;26;34074;-89
2022/09/20 15:17:44;;;;;;;1.50;0.90;;;;;;;14.65;59.08;100473.03;6660395;26;32113;-90
2022/09/20 15:20:48;;;;;;;1.23;1.15;;;;;;;14.79;59.62;100473.94;6664638;26;33955;-90
2022/09/20 15:23:51;;;;;;;1.58;1.30;;;;;;;14.80;60.60;100480.19;6681606;26;34004;-90
2022/09/20 15:26:54;;;;;;;3.25;1.10;;;;;;;14.58;63.30;100482.19;6674695;26;35478;-89
2022/09/20 15:29:57;;;;;;;2.67;1.23;;;;;;;14.63;62.88;100485.16;6664577;26;34484;-90
2022/09/20 15:33:00;;;;;;;1.00;0.95;;;;;;;14.50;63.68;100491.28;6647063;26;32403;-90
2022/09/20 15:36:05;;;;;;;0.88;0.82;;;;;;;14.33;63.11;100503.47;6664386;26;35402;-89
2022/09/20 15:39:08;;;;;;;0.80;0.80;;;;;;;14.20;63.48;100498.84;6643935;26;33087;-90
2022/09/20 15:42:10;;;;;;;0.82;0.82;;;;;;;14.01;65.37;100498.50;6664280;26;33665;-90
2022/09/20 15:45:13;;;;;;;1.58;1.48;;;;;;;13.77;65.92;100501.63;6664019;26;34361;-90
2022/09/20 15:48:21;;;;;;;1.33;1.23;;;;;;;13.50;67.50;100506.81;6643846;26;32356;-90
2022/09/20 15:51:25;;;;;;;1.20;1.10;;;;;;;13.59;67.70;100507.53;6667077;26;35184;-90
2022/09/20 15:54:27;;;;;;;3.65;1.65;;;;;;;13.31;70.64;100507.47;6645200;26;33523;-90
